Petrolandia, Brazil
Current Conditions -  °F | °C
As of 10:00 PM on Monday 24 Nov 2014 (Local Time) from SBJU Reporting Station
Clear Clear  
Wind Chill: 84°   Ceiling: Unl
Heat Index: 86°   Visibility: 6mi
Dew Point: 66°   Wind: 3mph
Humidity: 55%   Direction: 250°WSW
Pressure: 30"   Gusts: NA
Location:  8.98°S, 38.22°W
Report Text: SBJU 250100Z 25003KT CAVOK 29/19 Q1016
Loading
Personal Weather Stations






























Interactive Weather Map New forecast layout! Learn more

10-Day Weather Forecast

Advertisements
Track Severe Weather on mobile